»·PEaware :: FFT227 KSEA-KBOI

FFT227 :: KSEA-KBOI

FLIGHT INFORMATION

Flight Status: Arrived
Operator:
Frontier Airlines
More flights by this operator :: More flights under this callsign
Pilot: Brian B. (27125)
Aircraft: AIRBUS A321
(A321)
More flights by this aircraft type
Origin: KSEA Seattle-Tacoma Intl
United States
Destination: KBOI Boise Air Terminal/Gowen
United States
More flights between these airports :: More routes between these airports
Route: +SUMMA1 SUMMA J54 BKE DEVLE KYAAN3
File this flight plan on PilotEdge
Remarks:
Altitude:
(Current/Filed)
32,000ft
Speed:
(Current/Filed)
290kts
Departed: 19-May-20 07:00 PM
Arrived: 19-May-20 08:03 PM
Distance/Time
Traveled:
346nm/1:03
Distance/Time
To Go:
Arrived

Flight Plot

Page will automatically refresh every two minutes.


Map Options




Map Legend


Flown Route
Filed Route
Departure Airport
Arrival Airport
Navaid (VOR, NDB)
Fix

Horizontal Profiles

Position Reports

Time Latitude Longitude Heading Altitude Ground
Speed
19-May-20 18:36 47.449307 -122.302567 197 405ft 0kts
19-May-20 18:37 47.449307 -122.302567 197 405ft 0kts
19-May-20 18:38 47.449307 -122.302567 197 405ft 0kts
19-May-20 18:39 47.449307 -122.302567 197 405ft 0kts
19-May-20 18:40 47.449307 -122.302567 197 405ft 0kts
19-May-20 18:41 47.449307 -122.302567 197 405ft 0kts
19-May-20 18:42 47.449307 -122.302567 197 405ft 0kts
19-May-20 18:43 47.449307 -122.302567 197 405ft 0kts
19-May-20 18:44 47.449307 -122.302567 197 405ft 0kts
19-May-20 18:45 47.449307 -122.302567 197 405ft 0kts
19-May-20 18:47 47.449307 -122.302567 197 405ft 0kts
19-May-20 18:48 47.449307 -122.302567 197 405ft 0kts
19-May-20 18:49 47.449307 -122.302567 197 405ft 0kts
19-May-20 18:50 47.449307 -122.302567 197 405ft 0kts
19-May-20 18:51 47.449307 -122.302567 197 405ft 0kts
19-May-20 18:52 47.449288 -122.302579 202 405ft 1kts
19-May-20 18:53 47.449879 -122.303686 307 409ft 11kts
19-May-20 18:54 47.453287 -122.306222 0 426ft 18kts
19-May-20 18:55 47.458312 -122.306161 359 442ft 22kts
19-May-20 18:56 47.463161 -122.306103 0 424ft 7kts
19-May-20 18:57 47.463691 -122.306451 292 417ft 0kts
19-May-20 18:58 47.463691 -122.306451 292 417ft 0kts
19-May-20 18:59 47.462611 -122.307758 179 416ft 4kts
19-May-20 19:00 47.440682 -122.307939 181 585ft 173kts
19-May-20 19:01 47.391275 -122.310876 186 2300ft 191kts
19-May-20 19:02 47.335991 -122.316317 180 4104ft 209kts
19-May-20 19:02 47.288716 -122.314377 180 5583ft 232kts
19-May-20 19:04 47.221850 -122.300488 150 7410ft 286kts
19-May-20 19:05 47.169459 -122.251389 150 8887ft 294kts
19-May-20 19:05 47.115868 -122.224570 163 10201ft 301kts
19-May-20 19:06 47.039917 -122.189175 162 12114ft 358kts
19-May-20 19:08 46.927793 -122.135658 160 15463ft 427kts
19-May-20 19:08 46.853645 -122.100392 159 17574ft 411kts
19-May-20 19:09 46.758246 -122.054979 159 20267ft 423kts
19-May-20 19:10 46.654473 -122.005780 159 22866ft 434kts
19-May-20 19:11 46.577309 -121.891599 113 25386ft 415kts
19-May-20 19:12 46.522819 -121.748485 114 27952ft 405kts
19-May-20 19:13 46.467555 -121.609378 114 30212ft 387kts
19-May-20 19:14 46.408889 -121.462640 114 30977ft 409kts
19-May-20 19:15 46.350368 -121.316988 115 30953ft 448kts
19-May-20 19:16 46.280699 -121.144646 116 30937ft 466kts
19-May-20 19:17 46.206628 -120.962577 119 30915ft 448kts
19-May-20 19:18 46.131179 -120.779142 119 30904ft 449kts
19-May-20 19:19 46.053762 -120.591794 119 30891ft 450kts
19-May-20 19:20 45.977867 -120.409282 119 30887ft 450kts
19-May-20 19:21 45.906396 -120.238185 120 30884ft 450kts
19-May-20 19:22 45.840533 -120.082586 120 30884ft 449kts
19-May-20 19:23 45.775547 -119.929146 120 30885ft 450kts
19-May-20 19:24 45.711841 -119.779434 120 30885ft 450kts
19-May-20 19:25 45.647723 -119.629744 120 30885ft 450kts
19-May-20 19:26 45.583531 -119.480512 120 30884ft 450kts
19-May-20 19:27 45.521394 -119.336760 120 30883ft 450kts
19-May-20 19:28 45.459121 -119.193003 120 30885ft 449kts
19-May-20 19:29 45.391534 -119.038177 121 30892ft 450kts
19-May-20 19:30 45.326831 -118.890707 121 30902ft 434kts
19-May-20 19:31 45.265038 -118.750476 123 30900ft 424kts
19-May-20 19:32 45.203066 -118.611111 124 30900ft 425kts
19-May-20 19:33 45.141617 -118.473305 123 30900ft 424kts
19-May-20 19:34 45.081842 -118.339912 124 30898ft 424kts
19-May-20 19:35 45.021662 -118.205926 122 29588ft 408kts
19-May-20 19:36 44.959047 -118.067245 126 28355ft 419kts
19-May-20 19:37 44.897749 -117.932474 126 27185ft 416kts
19-May-20 19:38 44.826775 -117.808550 140 25989ft 406kts
19-May-20 19:39 44.738594 -117.716095 150 24807ft 397kts
19-May-20 19:40 44.646328 -117.633922 150 23623ft 394kts
19-May-20 19:41 44.555189 -117.552647 150 22246ft 393kts
19-May-20 19:42 44.468793 -117.475759 150 19647ft 358kts
19-May-20 19:43 44.388666 -117.404773 149 16988ft 336kts
19-May-20 19:44 44.311333 -117.336339 149 15925ft 329kts
19-May-20 19:45 44.235201 -117.268978 148 15912ft 329kts
19-May-20 19:46 44.166312 -117.189271 137 14699ft 332kts
19-May-20 19:47 44.101566 -117.104014 137 13066ft 330kts
19-May-20 19:48 44.040019 -117.023667 136 11242ft 332kts
19-May-20 19:49 43.985100 -116.951991 134 10113ft 296kts
19-May-20 19:50 43.935182 -116.861621 122 8807ft 262kts
19-May-20 19:51 43.896251 -116.781094 123 8019ft 251kts
19-May-20 19:52 43.857307 -116.701518 123 7897ft 251kts
19-May-20 19:53 43.813195 -116.626884 141 7030ft 249kts
19-May-20 19:54 43.761958 -116.572947 142 5672ft 212kts
19-May-20 19:55 43.718942 -116.527261 142 4279ft 181kts
19-May-20 19:56 43.685298 -116.477369 129 4237ft 181kts
19-May-20 19:57 43.651232 -116.426220 131 4687ft 182kts
19-May-20 19:58 43.621699 -116.372522 120 4327ft 160kts
19-May-20 19:59 43.599558 -116.320791 117 3685ft 158kts
19-May-20 20:00 43.580981 -116.268003 116 3162ft 149kts
19-May-20 20:01 43.565607 -116.223363 117 2850ft 60kts
19-May-20 20:02 43.563883 -116.217356 52 2857ft 11kts

Navigation Log

Ident Type
Flight plan parsing failed, navigation log unavailable